Time;durP1;ratioP1;P1;durP2;ratioP2;P2;SDS_P1;SDS_P2;PMS_P1;PMS_P2;Temp;Humidity;BMP_temperature;BMP_pressure;BME280_temperature;BME280_humidity;BME280_pressure;Samples;Min_cycle;Max_cycle;Signal;HPM_P1;HPM_P2
2022/10/24 00:00:30;;;;;;;18.00;10.37;;;13.90;99.90;;;;;;5069019;28;20649;-62
2022/10/24 00:02:58;;;;;;;20.20;10.10;;;13.90;99.90;;;;;;5068466;28;20189;-62
2022/10/24 00:05:25;;;;;;;19.23;11.03;;;13.90;99.90;;;;;;5065834;28;20197;-62
2022/10/24 00:07:53;;;;;;;13.83;8.97;;;13.90;99.90;;;;;;5065973;28;20203;-63
2022/10/24 00:10:21;;;;;;;12.67;8.33;;;13.90;99.90;;;;;;5064181;28;20246;-62
2022/10/24 00:12:48;;;;;;;17.70;10.67;;;13.80;99.90;;;;;;5066385;28;20197;-62
2022/10/24 00:15:15;;;;;;;18.80;10.27;;;13.80;99.90;;;;;;5064728;28;20582;-62
2022/10/24 00:17:44;;;;;;;15.87;9.73;;;13.80;99.90;;;;;;5066294;28;20201;-63
2022/10/24 00:20:12;;;;;;;13.93;8.47;;;13.70;99.90;;;;;;5065444;28;20200;-62
2022/10/24 00:22:40;;;;;;;17.27;10.97;;;13.70;99.90;;;;;;5066891;28;20227;-62
2022/10/24 00:25:08;;;;;;;17.13;11.03;;;13.70;99.90;;;;;;5066459;28;20208;-62
2022/10/24 00:27:35;;;;;;;16.73;10.63;;;13.70;99.90;;;;;;5066372;28;20197;-62
2022/10/24 00:30:03;;;;;;;15.33;9.77;;;13.70;99.90;;;;;;5067676;28;20200;-62
2022/10/24 00:32:31;;;;;;;16.93;9.70;;;13.70;99.90;;;;;;5066564;28;20212;-62
2022/10/24 00:34:59;;;;;;;18.40;10.80;;;13.70;99.90;;;;;;5067067;28;20201;-62
2022/10/24 00:37:27;;;;;;;13.00;8.83;;;13.70;99.90;;;;;;5069426;28;20197;-62
2022/10/24 00:39:54;;;;;;;14.00;9.30;;;13.70;99.90;;;;;;5066742;28;20225;-62
2022/10/24 00:42:21;;;;;;;16.50;9.50;;;13.70;99.90;;;;;;5073214;28;20192;-62
2022/10/24 00:44:52;;;;;;;13.60;9.03;;;13.60;99.90;;;;;;5067477;28;20283;-62
2022/10/24 00:47:22;;;;;;;12.67;8.40;;;13.60;99.90;;;;;;5070221;28;20198;-62
2022/10/24 00:49:52;;;;;;;13.97;8.97;;;13.60;99.90;;;;;;5066859;28;20243;-62
2022/10/24 00:52:25;;;;;;;12.67;7.63;;;13.60;99.90;;;;;;5066957;28;20611;-63
2022/10/24 00:54:54;;;;;;;9.23;6.33;;;13.60;99.90;;;;;;5067654;28;20205;-63
2022/10/24 00:57:27;;;;;;;11.43;7.33;;;13.60;99.90;;;;;;5067495;28;20201;-62
2022/10/24 00:59:58;;;;;;;14.10;9.83;;;13.60;99.90;;;;;;5067741;28;20220;-62
2022/10/24 01:02:26;;;;;;;15.13;9.30;;;13.60;99.90;;;;;;5068041;22;20242;-77
2022/10/24 01:04:54;;;;;;;14.17;9.23;;;13.60;99.90;;;;;;5069640;28;20253;-77
2022/10/24 01:07:36;;;;;;;13.80;9.90;;;13.60;99.90;;;;;;5050696;28;20190;-78
2022/10/24 01:10:16;;;;;;;17.50;10.97;;;13.50;99.90;;;;;;5038371;28;20201;-78
2022/10/24 01:12:52;;;;;;;19.63;11.47;;;13.40;99.90;;;;;;5054094;28;20737;-75
2022/10/24 01:15:24;;;;;;;19.23;11.83;;;13.40;99.90;;;;;;5055097;28;20508;-76
2022/10/24 01:17:59;;;;;;;16.93;10.10;;;13.30;99.90;;;;;;5044821;28;20248;-76
2022/10/24 01:20:49;;;;;;;21.07;11.13;;;13.30;99.90;;;;;;5056751;28;20621;-76
2022/10/24 01:23:50;;;;;;;16.20;9.47;;;13.30;99.90;;;;;;5040716;28;20315;-76
2022/10/24 01:26:36;;;;;;;19.03;11.27;;;13.30;99.90;;;;;;5059821;28;20201;-76
2022/10/24 01:29:14;;;;;;;14.87;9.57;;;13.30;99.90;;;;;;5050379;28;20204;-76
2022/10/24 01:31:48;;;;;;;16.40;10.37;;;13.30;99.90;;;;;;5037777;28;20231;-77
2022/10/24 01:34:22;;;;;;;15.60;9.57;;;13.30;99.90;;;;;;5058385;28;20198;-77
2022/10/24 01:36:58;;;;;;;17.93;9.50;;;13.30;99.90;;;;;;5054894;28;20601;-76
2022/10/24 01:39:30;;;;;;;13.43;8.90;;;13.30;99.90;;;;;;5058990;28;20192;-77
2022/10/24 01:41:58;;;;;;;15.83;8.87;;;13.30;99.90;;;;;;5059047;28;20193;-76
2022/10/24 01:44:29;;;;;;;17.00;10.53;;;13.20;99.90;;;;;;5041414;28;20287;-76
2022/10/24 01:47:03;;;;;;;14.73;9.37;;;13.20;99.90;;;;;;5057771;28;20537;-76
2022/10/24 01:49:35;;;;;;;16.00;9.27;;;13.20;99.90;;;;;;5062150;28;20204;-77
2022/10/24 01:52:07;;;;;;;14.10;9.10;;;13.20;99.90;;;;;;5060265;28;20288;-77
2022/10/24 01:54:35;;;;;;;14.57;8.60;;;13.20;99.90;;;;;;5059580;28;20565;-78
2022/10/24 01:57:04;;;;;;;12.27;8.00;;;13.20;99.90;;;;;;5055259;28;20206;-78
2022/10/24 01:59:46;;;;;;;15.87;9.57;;;13.20;99.90;;;;;;5056734;28;20204;-78
2022/10/24 02:02:19;;;;;;;11.73;7.93;;;13.20;99.90;;;;;;5035613;28;20229;-78
2022/10/24 02:04:54;;;;;;;15.20;9.40;;;13.20;99.90;;;;;;5041830;28;20207;-77
2022/10/24 02:07:22;;;;;;;12.10;8.30;;;13.30;99.90;;;;;;5038645;28;20185;-78
2022/10/24 02:09:54;;;;;;;12.80;8.37;;;13.30;99.90;;;;;;5035518;28;20205;-77
2022/10/24 02:12:22;;;;;;;13.70;8.87;;;13.30;99.90;;;;;;5038589;28;20730;-77
2022/10/24 02:14:55;;;;;;;15.63;9.13;;;13.30;99.90;;;;;;5032176;28;20243;-77
2022/10/24 02:17:24;;;;;;;16.03;9.30;;;13.30;99.90;;;;;;5038416;28;20185;-77
2022/10/24 02:19:51;;;;;;;16.20;9.97;;;13.30;99.90;;;;;;5033160;28;20197;-77
2022/10/24 02:22:24;;;;;;;14.17;9.20;;;13.30;99.90;;;;;;5031525;28;20202;-78
2022/10/24 02:24:54;;;;;;;14.43;9.67;;;13.30;99.90;;;;;;5039735;28;20193;-78
2022/10/24 02:27:25;;;;;;;15.53;9.57;;;13.30;99.90;;;;;;5033782;28;20201;-78
2022/10/24 02:29:55;;;;;;;13.97;9.70;;;13.20;99.90;;;;;;5039008;28;20599;-77
2022/10/24 02:32:28;;;;;;;15.17;9.93;;;13.20;99.90;;;;;;5035473;28;20214;-78
2022/10/24 02:34:57;;;;;;;9.47;6.80;;;13.30;99.90;;;;;;5036502;28;20289;-78
2022/10/24 02:37:27;;;;;;;9.53;6.83;;;13.20;99.90;;;;;;5039541;28;20210;-77
2022/10/24 02:39:56;;;;;;;7.47;5.93;;;13.30;99.90;;;;;;5037585;28;20205;-77
2022/10/24 02:42:27;;;;;;;12.20;8.10;;;13.30;99.90;;;;;;5035209;28;20190;-77
2022/10/24 02:44:55;;;;;;;14.67;9.27;;;13.30;99.90;;;;;;5031140;28;20222;-77
2022/10/24 02:47:25;;;;;;;13.17;9.03;;;13.40;99.90;;;;;;5035510;28;20191;-78
2022/10/24 02:49:53;;;;;;;13.13;8.97;;;13.40;99.90;;;;;;5034018;28;20320;-77
2022/10/24 02:52:22;;;;;;;14.70;9.83;;;13.40;99.90;;;;;;5033601;28;20210;-78
2022/10/24 02:54:49;;;;;;;16.20;10.57;;;13.40;99.90;;;;;;5038378;28;20278;-77
2022/10/24 02:57:16;;;;;;;13.63;9.70;;;13.30;99.90;;;;;;5035182;28;20530;-77
2022/10/24 02:59:44;;;;;;;15.33;10.30;;;13.40;99.90;;;;;;5037277;28;20197;-78
2022/10/24 03:02:11;;;;;;;17.67;11.17;;;13.30;99.90;;;;;;5047280;28;20229;-78
2022/10/24 03:04:39;;;;;;;14.03;9.83;;;13.30;99.90;;;;;;5056151;28;20190;-78
2022/10/24 03:07:07;;;;;;;18.93;12.13;;;13.30;99.90;;;;;;5061373;28;20673;-78
2022/10/24 03:09:34;;;;;;;18.47;11.93;;;13.30;99.90;;;;;;5049162;28;20240;-77
2022/10/24 03:12:02;;;;;;;19.77;12.13;;;13.30;99.90;;;;;;5062606;28;20220;-77
2022/10/24 03:14:29;;;;;;;21.17;13.07;;;13.30;99.90;;;;;;5060798;28;20667;-76
2022/10/24 03:16:56;;;;;;;19.43;11.87;;;13.30;99.90;;;;;;5057384;28;20205;-77
2022/10/24 03:19:23;;;;;;;21.03;13.33;;;13.30;99.90;;;;;;5063154;28;20203;-78
2022/10/24 03:21:52;;;;;;;18.00;12.57;;;13.30;99.90;;;;;;5042320;28;20203;-77
2022/10/24 03:24:19;;;;;;;21.27;13.50;;;13.30;99.90;;;;;;5058097;28;20246;-77
2022/10/24 03:26:46;;;;;;;20.83;12.93;;;13.30;99.90;;;;;;5040581;28;20300;-77
2022/10/24 03:29:13;;;;;;;27.33;15.20;;;13.30;99.90;;;;;;5040841;28;20301;-77
2022/10/24 03:31:41;;;;;;;24.27;13.70;;;13.20;99.90;;;;;;5038976;28;20197;-77
2022/10/24 03:34:08;;;;;;;23.87;13.53;;;13.20;99.90;;;;;;5057785;28;20214;-77
2022/10/24 03:36:35;;;;;;;24.87;14.27;;;13.30;99.90;;;;;;5041483;28;20202;-77
2022/10/24 03:39:04;;;;;;;27.77;14.83;;;13.30;99.90;;;;;;5058094;28;20210;-78
2022/10/24 03:41:31;;;;;;;25.40;15.67;;;13.30;99.90;;;;;;5055304;28;20269;-77
2022/10/24 03:43:58;;;;;;;27.03;15.87;;;13.30;99.90;;;;;;5068459;28;20196;-78
2022/10/24 03:46:25;;;;;;;25.13;15.07;;;13.20;99.90;;;;;;5043723;28;20193;-78
2022/10/24 03:48:53;;;;;;;30.73;17.37;;;13.20;99.90;;;;;;5041684;28;20224;-77
2022/10/24 03:51:20;;;;;;;26.37;16.40;;;13.20;99.90;;;;;;5059676;28;20797;-77
2022/10/24 03:53:47;;;;;;;25.77;15.37;;;13.20;99.90;;;;;;5061021;28;20232;-78
2022/10/24 03:56:15;;;;;;;24.47;14.77;;;13.20;99.90;;;;;;5036446;28;20206;-78
2022/10/24 03:58:43;;;;;;;25.13;14.37;;;13.20;99.90;;;;;;5062358;28;20194;-78
2022/10/24 04:01:15;;;;;;;24.97;13.90;;;13.30;99.90;;;;;;5057267;28;20237;-78
2022/10/24 04:03:43;;;;;;;21.20;13.23;;;13.30;99.90;;;;;;5053115;28;20194;-77
2022/10/24 04:06:10;;;;;;;18.43;11.60;;;13.30;99.90;;;;;;5056617;28;20263;-77
2022/10/24 04:08:37;;;;;;;16.50;10.47;;;13.30;99.90;;;;;;5053027;28;20193;-76
2022/10/24 04:11:06;;;;;;;22.23;14.10;;;13.30;99.90;;;;;;5040980;28;20212;-76
2022/10/24 04:13:35;;;;;;;65.93;33.63;;;13.40;99.90;;;;;;5059940;28;20228;-77
2022/10/24 04:16:02;;;;;;;35.87;20.80;;;13.40;99.90;;;;;;5058535;28;20189;-77
2022/10/24 04:18:29;;;;;;;27.73;15.93;;;13.40;99.90;;;;;;5058946;28;20263;-77
2022/10/24 04:20:56;;;;;;;18.73;12.60;;;13.40;99.90;;;;;;5061720;28;20250;-77
2022/10/24 04:23:24;;;;;;;19.13;12.17;;;13.40;99.90;;;;;;5056889;28;20204;-78
2022/10/24 04:25:51;;;;;;;18.90;11.50;;;13.40;99.90;;;;;;5064211;28;20362;-77
2022/10/24 04:28:18;;;;;;;15.30;10.60;;;13.40;99.90;;;;;;5042183;28;20211;-77
2022/10/24 04:30:47;;;;;;;17.03;10.67;;;13.30;99.90;;;;;;5047585;28;20206;-77
2022/10/24 04:33:14;;;;;;;13.70;10.20;;;13.30;99.90;;;;;;5063776;28;20205;-77
2022/10/24 04:35:47;;;;;;;16.30;10.77;;;13.30;99.90;;;;;;5062596;28;20199;-77
2022/10/24 04:38:15;;;;;;;15.87;11.17;;;13.30;99.90;;;;;;5060552;28;20348;-78
2022/10/24 04:40:45;;;;;;;16.20;11.00;;;13.30;99.90;;;;;;5066444;28;20197;-77
2022/10/24 04:43:12;;;;;;;20.50;11.30;;;13.30;99.90;;;;;;5048046;28;20215;-77
2022/10/24 04:45:39;;;;;;;17.20;11.43;;;13.30;99.90;;;;;;5042972;28;20204;-77
2022/10/24 04:48:08;;;;;;;15.73;10.37;;;13.30;99.90;;;;;;5060469;28;20197;-77
2022/10/24 04:50:35;;;;;;;18.57;10.90;;;13.20;99.90;;;;;;5060729;28;20221;-78
2022/10/24 04:53:02;;;;;;;17.30;10.93;;;13.20;99.90;;;;;;5042115;28;20212;-76
2022/10/24 04:55:30;;;;;;;14.60;9.43;;;13.20;99.90;;;;;;5041152;28;20195;-77
2022/10/24 04:57:57;;;;;;;11.53;7.90;;;13.20;99.90;;;;;;5044241;28;20291;-78
2022/10/24 05:00:24;;;;;;;14.97;9.57;;;13.30;99.90;;;;;;5060582;28;20200;-78
2022/10/24 05:02:51;;;;;;;11.03;7.00;;;13.30;99.90;;;;;;5013176;28;20193;-77
2022/10/24 05:05:20;;;;;;;12.33;7.77;;;13.30;99.90;;;;;;5017050;28;20190;-78
2022/10/24 05:07:47;;;;;;;12.27;8.13;;;13.40;99.90;;;;;;5019617;28;20184;-78
2022/10/24 05:10:16;;;;;;;10.10;7.13;;;13.40;99.90;;;;;;5019680;28;20197;-77
2022/10/24 05:12:43;;;;;;;11.73;7.93;;;13.40;99.90;;;;;;5024907;28;20218;-77
2022/10/24 05:15:13;;;;;;;11.00;7.60;;;13.50;99.90;;;;;;5017450;28;20202;-77
2022/10/24 05:17:40;;;;;;;12.53;8.47;;;13.50;99.90;;;;;;5020855;28;20556;-77
2022/10/24 05:20:08;;;;;;;12.97;9.13;;;13.60;99.90;;;;;;5019490;28;20225;-77
2022/10/24 05:22:37;;;;;;;14.73;9.73;;;13.20;99.90;;;;;;5024394;28;20206;-78
2022/10/24 05:25:05;;;;;;;15.43;9.37;;;13.60;99.90;;;;;;5032519;28;20185;-77
2022/10/24 05:27:33;;;;;;;17.60;10.73;;;13.60;99.90;;;;;;5045949;28;20278;-77
2022/10/24 05:30:00;;;;;;;20.33;11.87;;;13.50;99.90;;;;;;5043958;28;20213;-77
2022/10/24 05:32:27;;;;;;;23.67;12.40;;;13.50;99.90;;;;;;5029357;28;20711;-79
2022/10/24 05:34:54;;;;;;;21.17;12.20;;;13.50;99.90;;;;;;5017464;28;20191;-78
2022/10/24 05:37:21;;;;;;;20.90;12.23;;;13.50;99.90;;;;;;5015227;28;20268;-77
2022/10/24 05:39:50;;;;;;;18.37;11.30;;;13.50;99.90;;;;;;5023320;28;20214;-77
2022/10/24 05:42:17;;;;;;;18.23;11.17;;;13.50;99.90;;;;;;5021222;28;20200;-77
2022/10/24 05:44:44;;;;;;;17.03;9.90;;;13.50;99.90;;;;;;5019078;28;20252;-77
2022/10/24 05:47:12;;;;;;;17.77;10.60;;;13.50;99.90;;;;;;5019392;28;20194;-77
2022/10/24 05:49:39;;;;;;;19.37;10.33;;;13.50;99.90;;;;;;5018116;28;20534;-77
2022/10/24 05:52:06;;;;;;;14.73;9.23;;;13.60;99.90;;;;;;5016070;28;20211;-77
2022/10/24 05:54:33;;;;;;;11.90;7.97;;;13.60;99.90;;;;;;5016021;28;20329;-77
2022/10/24 05:57:02;;;;;;;20.90;11.50;;;13.60;99.90;;;;;;5021156;28;20194;-77
2022/10/24 05:59:29;;;;;;;21.27;13.07;;;13.60;99.90;;;;;;5015599;28;20206;-77
2022/10/24 06:01:56;;;;;;;21.17;13.13;;;13.60;99.90;;;;;;5022021;28;20236;-76
2022/10/24 06:04:23;;;;;;;26.10;14.80;;;13.60;99.90;;;;;;5037500;28;20201;-77
2022/10/24 06:06:50;;;;;;;22.60;13.17;;;13.60;99.90;;;;;;5038167;28;20209;-77
2022/10/24 06:09:18;;;;;;;23.83;14.60;;;13.60;99.90;;;;;;5037089;28;20299;-77
2022/10/24 06:11:45;;;;;;;26.27;15.27;;;13.60;99.90;;;;;;5034667;28;20693;-77
2022/10/24 06:14:15;;;;;;;28.93;15.40;;;13.50;99.90;;;;;;5057613;28;20216;-78
2022/10/24 06:16:43;;;;;;;29.07;16.13;;;13.50;99.90;;;;;;5039723;28;20629;-77
2022/10/24 06:19:10;;;;;;;24.80;14.70;;;13.50;99.90;;;;;;5041157;28;20545;-77
2022/10/24 06:21:37;;;;;;;27.17;15.27;;;13.50;99.90;;;;;;5036132;28;20682;-77
2022/10/24 06:24:04;;;;;;;32.90;16.07;;;13.40;99.90;;;;;;5037566;28;20209;-77
2022/10/24 06:26:32;;;;;;;28.40;15.80;;;13.40;99.90;;;;;;5036886;28;20190;-77
2022/10/24 06:28:59;;;;;;;27.90;15.43;;;13.40;99.90;;;;;;5039550;28;20202;-77
2022/10/24 06:31:27;;;;;;;26.13;15.30;;;13.40;99.90;;;;;;5036034;28;20200;-77
2022/10/24 06:33:54;;;;;;;28.40;15.30;;;13.40;99.90;;;;;;5036604;28;20201;-77
2022/10/24 06:36:22;;;;;;;27.03;14.57;;;13.40;99.90;;;;;;5037045;28;20273;-77
2022/10/24 06:38:49;;;;;;;29.10;16.23;;;13.40;99.90;;;;;;5036906;28;20197;-76
2022/10/24 06:41:17;;;;;;;29.50;16.67;;;13.40;99.90;;;;;;5045067;28;20204;-77
2022/10/24 06:43:44;;;;;;;29.30;15.60;;;13.40;99.90;;;;;;5037096;28;20194;-77
2022/10/24 06:46:14;;;;;;;20.60;12.17;;;13.40;99.90;;;;;;5035969;28;20606;-76
2022/10/24 06:48:44;;;;;;;32.87;17.63;;;13.40;99.90;;;;;;5038529;28;20279;-77
2022/10/24 06:51:15;;;;;;;26.73;14.70;;;13.40;99.90;;;;;;5041533;28;20212;-76
2022/10/24 06:53:42;;;;;;;17.77;10.80;;;13.50;99.90;;;;;;5043922;28;20312;-77
2022/10/24 06:56:09;;;;;;;14.43;8.93;;;13.50;99.90;;;;;;5032287;28;20581;-77
2022/10/24 06:58:38;;;;;;;19.27;11.23;;;13.60;99.90;;;;;;5040316;28;20189;-76
2022/10/24 07:01:08;;;;;;;17.97;10.27;;;13.60;99.90;;;;;;5043072;28;20239;-77
2022/10/24 07:03:36;;;;;;;16.07;9.40;;;13.60;99.90;;;;;;5041157;28;20189;-76
2022/10/24 07:06:07;;;;;;;21.63;12.53;;;13.70;99.90;;;;;;5059669;28;20193;-76
2022/10/24 07:08:35;;;;;;;25.30;14.40;;;13.80;99.90;;;;;;5055428;28;20199;-77
2022/10/24 07:11:02;;;;;;;27.00;13.73;;;13.70;99.90;;;;;;5039295;28;20603;-76
2022/10/24 07:13:30;;;;;;;28.17;15.00;;;13.80;99.90;;;;;;5055311;28;20224;-77
2022/10/24 07:15:57;;;;;;;22.87;12.73;;;13.80;99.90;;;;;;5039736;28;20657;-78
2022/10/24 07:18:24;;;;;;;23.13;13.27;;;13.80;99.90;;;;;;5042291;28;20205;-77
2022/10/24 07:20:51;;;;;;;26.50;14.10;;;13.80;99.90;;;;;;5059904;28;20284;-78
2022/10/24 07:23:22;;;;;;;25.83;14.03;;;13.90;99.90;;;;;;5041704;28;20292;-78
2022/10/24 07:25:53;;;;;;;31.80;16.80;;;13.90;99.90;;;;;;5046736;28;20205;-75
2022/10/24 07:28:21;;;;;;;30.47;16.30;;;13.80;99.90;;;;;;5042010;28;20203;-78
2022/10/24 07:30:48;;;;;;;28.43;16.27;;;13.90;99.90;;;;;;5052775;28;20228;-78
2022/10/24 07:33:15;;;;;;;33.67;17.80;;;13.90;99.90;;;;;;5054925;28;20255;-76
2022/10/24 07:35:42;;;;;;;27.83;15.50;;;13.90;99.90;;;;;;5059207;28;20616;-77
2022/10/24 07:38:10;;;;;;;31.17;17.33;;;13.90;99.90;;;;;;5039069;28;20256;-77
2022/10/24 07:40:38;;;;;;;23.77;13.00;;;13.80;99.90;;;;;;5056051;28;20259;-77
2022/10/24 07:43:05;;;;;;;26.77;15.07;;;13.90;99.90;;;;;;5053215;28;20192;-78
2022/10/24 07:45:32;;;;;;;30.57;16.70;;;13.90;99.90;;;;;;5040248;28;20509;-78
2022/10/24 07:48:00;;;;;;;27.93;15.53;;;13.90;99.90;;;;;;5053490;28;20210;-78
2022/10/24 07:50:27;;;;;;;29.03;16.13;;;13.90;99.90;;;;;;5059994;28;20290;-78
2022/10/24 07:52:54;;;;;;;30.50;16.90;;;13.90;99.90;;;;;;5055509;28;20199;-78
2022/10/24 07:55:21;;;;;;;33.20;17.47;;;13.90;99.90;;;;;;5058565;28;20542;-79
2022/10/24 07:57:50;;;;;;;28.87;16.33;;;13.90;99.90;;;;;;5061021;28;20673;-78
2022/10/24 08:00:17;;;;;;;30.10;16.27;;;13.90;99.90;;;;;;5054047;28;20199;-78
2022/10/24 08:02:45;;;;;;;32.43;17.63;;;13.90;99.90;;;;;;5052597;28;20746;-79
2022/10/24 08:05:12;;;;;;;34.10;18.70;;;13.90;99.90;;;;;;5060880;28;20204;-80
2022/10/24 08:07:39;;;;;;;35.33;19.27;;;13.90;99.90;;;;;;5039075;28;20293;-80
2022/10/24 08:10:09;;;;;;;29.50;17.17;;;13.90;99.90;;;;;;5042412;28;20209;-80
2022/10/24 08:12:36;;;;;;;32.90;17.90;;;13.90;99.90;;;;;;5040781;28;20208;-80
2022/10/24 08:15:05;;;;;;;28.70;16.80;;;13.90;99.90;;;;;;5061665;28;20213;-80
2022/10/24 08:17:32;;;;;;;31.07;17.27;;;13.90;99.90;;;;;;5053747;28;20190;-80
2022/10/24 08:20:00;;;;;;;28.47;16.30;;;13.90;99.90;;;;;;5054022;28;20287;-80
2022/10/24 08:22:27;;;;;;;27.10;16.97;;;14.00;99.90;;;;;;5054836;28;20212;-80
2022/10/24 08:24:54;;;;;;;35.17;19.70;;;14.00;99.90;;;;;;5055349;28;20254;-80
2022/10/24 08:27:21;;;;;;;29.70;18.53;;;14.00;99.90;;;;;;5058059;28;20208;-80
2022/10/24 08:29:49;;;;;;;30.87;18.40;;;14.00;99.90;;;;;;5058181;28;20273;-79
2022/10/24 08:32:17;;;;;;;30.50;17.73;;;14.00;99.90;;;;;;5056215;28;20210;-79
2022/10/24 08:34:44;;;;;;;26.17;16.77;;;14.00;99.90;;;;;;5055804;28;20213;-79
2022/10/24 08:37:11;;;;;;;32.40;19.10;;;14.00;99.90;;;;;;5038982;28;20679;-80
2022/10/24 08:39:40;;;;;;;31.53;18.37;;;14.00;99.90;;;;;;5051860;28;20194;-80
2022/10/24 08:42:11;;;;;;;31.27;19.67;;;14.00;99.90;;;;;;5058076;28;20545;-80
2022/10/24 08:44:41;;;;;;;26.23;17.03;;;14.10;99.90;;;;;;5057097;28;20211;-80
2022/10/24 08:47:18;;;;;;;26.77;17.60;;;14.00;99.90;;;;;;5057736;28;20234;-80
2022/10/24 08:49:52;;;;;;;31.37;18.83;;;14.10;99.90;;;;;;5045883;28;20216;-80
2022/10/24 08:52:27;;;;;;;26.97;16.27;;;14.10;99.90;;;;;;5057696;28;20207;-80
2022/10/24 08:54:56;;;;;;;30.30;18.90;;;14.10;99.90;;;;;;5041202;28;20220;-78
2022/10/24 08:57:27;;;;;;;29.40;18.40;;;14.10;99.90;;;;;;5052949;28;20248;-80
2022/10/24 08:59:58;;;;;;;32.43;17.93;;;14.10;99.90;;;;;;5048330;28;20186;-78
2022/10/24 09:02:27;;;;;;;32.67;18.67;;;14.10;99.90;;;;;;5058978;28;20688;-79
2022/10/24 09:04:59;;;;;;;28.77;18.43;;;14.20;99.90;;;;;;5043347;28;20194;-80
2022/10/24 09:07:27;;;;;;;29.50;18.37;;;14.20;99.90;;;;;;5043533;28;20684;-79
2022/10/24 09:10:04;;;;;;;31.07;19.23;;;14.10;99.90;;;;;;5045015;28;20197;-80
2022/10/24 09:12:35;;;;;;;30.37;19.00;;;14.20;99.90;;;;;;5058007;28;20259;-79
2022/10/24 09:15:05;;;;;;;29.17;18.33;;;14.20;99.90;;;;;;5045239;28;20313;-80
2022/10/24 09:17:35;;;;;;;30.43;18.47;;;14.20;99.90;;;;;;5060732;28;20618;-79
2022/10/24 09:20:20;;;;;;;27.47;16.80;;;14.20;99.90;;;;;;5059957;28;20197;-79
2022/10/24 09:22:48;;;;;;;28.90;18.37;;;14.20;99.90;;;;;;5054927;28;20201;-79
2022/10/24 09:25:18;;;;;;;29.73;17.67;;;14.20;99.90;;;;;;5044311;28;20209;-79
2022/10/24 09:27:46;;;;;;;30.40;17.57;;;14.20;99.90;;;;;;5061295;28;20276;-79
2022/10/24 09:30:18;;;;;;;26.60;17.10;;;14.20;99.90;;;;;;5062774;28;20229;-79
2022/10/24 09:32:45;;;;;;;29.17;16.97;;;14.30;99.90;;;;;;5057926;28;20276;-79
2022/10/24 09:35:19;;;;;;;22.57;14.60;;;14.30;99.90;;;;;;5043808;28;20217;-80
2022/10/24 09:37:48;;;;;;;21.17;13.77;;;14.30;99.90;;;;;;5055455;28;20293;-78
2022/10/24 09:40:22;;;;;;;24.53;15.27;;;14.30;99.90;;;;;;5064362;28;20223;-78
2022/10/24 09:43:03;;;;;;;21.20;12.83;;;14.40;99.90;;;;;;5066915;28;20228;-78
2022/10/24 09:45:40;;;;;;;26.00;16.00;;;14.40;99.90;;;;;;5057881;28;20209;-78
2022/10/24 09:48:19;;;;;;;26.17;16.87;;;14.50;99.90;;;;;;5044820;28;20205;-79
2022/10/24 09:50:49;;;;;;;23.23;14.90;;;14.50;99.90;;;;;;5041243;28;20202;-78
2022/10/24 09:53:25;;;;;;;21.33;14.93;;;14.50;99.90;;;;;;5055746;28;20285;-78
2022/10/24 09:55:56;;;;;;;21.10;14.27;;;14.50;99.90;;;;;;5053991;28;20284;-78
2022/10/24 09:58:31;;;;;;;21.10;13.60;;;14.50;99.90;;;;;;5056281;28;20198;-78
2022/10/24 10:01:02;;;;;;;22.43;15.00;;;14.60;99.90;;;;;;5040508;28;20208;-77
2022/10/24 10:03:29;;;;;;;25.83;16.27;;;14.50;99.90;;;;;;5056758;28;20193;-77
2022/10/24 10:06:01;;;;;;;23.80;15.20;;;14.60;99.90;;;;;;5058126;28;20193;-78
2022/10/24 10:08:30;;;;;;;24.13;15.77;;;14.50;99.90;;;;;;5059023;28;20234;-78
2022/10/24 10:11:03;;;;;;;33.37;17.40;;;14.50;99.90;;;;;;5059079;28;20200;-77
2022/10/24 10:13:37;;;;;;;26.93;16.97;;;14.60;99.90;;;;;;5055004;28;20523;-76
2022/10/24 10:16:06;;;;;;;26.23;16.07;;;14.60;99.90;;;;;;5060413;28;20188;-77
2022/10/24 10:18:41;;;;;;;25.50;16.17;;;14.60;99.90;;;;;;5058612;28;20200;-77
2022/10/24 10:21:14;;;;;;;25.97;15.90;;;14.60;99.90;;;;;;5058680;28;20197;-77
2022/10/24 10:23:44;;;;;;;29.60;16.87;;;14.60;99.90;;;;;;5058914;28;20193;-77
2022/10/24 10:26:19;;;;;;;26.63;16.23;;;14.60;99.90;;;;;;5057223;28;20197;-77
2022/10/24 10:28:52;;;;;;;21.87;14.20;;;14.70;99.90;;;;;;5060085;28;20296;-77
2022/10/24 10:31:22;;;;;;;20.60;13.47;;;14.70;99.90;;;;;;5041605;28;20216;-78
2022/10/24 10:34:11;;;;;;;24.70;15.27;;;14.70;99.90;;;;;;5064336;28;20196;-77
2022/10/24 10:36:48;;;;;;;21.03;13.23;;;14.70;99.90;;;;;;5064439;28;20285;-77
2022/10/24 10:39:28;;;;;;;21.63;13.63;;;14.80;99.90;;;;;;5045402;28;20552;-78
2022/10/24 10:42:01;;;;;;;24.03;15.23;;;14.80;99.90;;;;;;5061379;28;20210;-78
2022/10/24 10:44:47;;;;;;;28.37;16.53;;;14.90;99.90;;;;;;5052146;28;20252;-77
2022/10/24 10:47:34;;;;;;;29.07;16.27;;;14.90;99.90;;;;;;5043941;28;20266;-78
2022/10/24 10:50:02;;;;;;;26.47;16.47;;;14.90;99.90;;;;;;5063334;28;20195;-78
2022/10/24 10:52:36;;;;;;;25.10;16.33;;;15.00;99.90;;;;;;5037988;28;20210;-78
2022/10/24 10:55:16;;;;;;;24.33;16.13;;;15.00;99.90;;;;;;5060873;28;20202;-78
2022/10/24 10:57:49;;;;;;;21.97;14.07;;;15.00;99.90;;;;;;5058474;28;20669;-78
2022/10/24 11:00:20;;;;;;;25.37;14.23;;;15.00;99.90;;;;;;5038667;28;20202;-78
2022/10/24 11:03:05;;;;;;;24.07;15.20;;;15.00;99.90;;;;;;5055942;28;20283;-79
2022/10/24 11:05:57;;;;;;;23.33;15.87;;;15.10;99.90;;;;;;5057980;28;20200;-78
2022/10/24 11:08:58;;;;;;;26.83;16.67;;;15.10;99.90;;;;;;5047381;28;20635;-79
2022/10/24 11:11:31;;;;;;;26.23;16.83;;;15.20;99.90;;;;;;5060634;28;20272;-78
2022/10/24 11:14:04;;;;;;;28.90;18.53;;;15.20;99.90;;;;;;5060643;28;20197;-78
2022/10/24 11:16:32;;;;;;;32.50;16.90;;;15.20;99.90;;;;;;5039665;28;20705;-77
2022/10/24 11:19:04;;;;;;;21.90;15.30;;;15.20;99.90;;;;;;5060368;28;20200;-78
2022/10/24 11:21:33;;;;;;;25.73;16.37;;;15.20;99.90;;;;;;5059323;28;20273;-77
2022/10/24 11:24:07;;;;;;;25.57;15.73;;;15.20;99.90;;;;;;5040695;28;20212;-76
2022/10/24 11:26:37;;;;;;;26.77;16.67;;;15.20;99.90;;;;;;5055380;28;20208;-78
2022/10/24 11:29:11;;;;;;;30.60;18.33;;;15.30;99.90;;;;;;5057946;28;20700;-78
2022/10/24 11:31:41;;;;;;;29.73;18.30;;;15.20;99.90;;;;;;5053056;28;20565;-78
2022/10/24 11:34:15;;;;;;;26.53;17.47;;;15.30;99.90;;;;;;5044111;28;20292;-77
2022/10/24 11:36:47;;;;;;;28.27;17.37;;;15.20;99.90;;;;;;5058845;28;20330;-76
2022/10/24 11:39:20;;;;;;;26.70;17.17;;;15.20;99.90;;;;;;5059511;28;20670;-79
2022/10/24 11:41:53;;;;;;;21.60;14.63;;;15.20;99.90;;;;;;5042247;28;20699;-77
2022/10/24 11:44:40;;;;;;;22.47;14.87;;;15.20;99.90;;;;;;5021403;28;20209;-76
2022/10/24 11:47:38;;;;;;;25.57;17.23;;;15.30;99.90;;;;;;5034825;28;20314;-76
2022/10/24 11:50:13;;;;;;;25.80;17.07;;;15.30;99.90;;;;;;5022483;28;20207;-77
2022/10/24 11:52:44;;;;;;;27.53;18.57;;;15.30;99.90;;;;;;5034717;28;20205;-78
2022/10/24 11:55:18;;;;;;;32.20;19.10;;;15.30;99.90;;;;;;5045127;28;20547;-78
2022/10/24 11:57:48;;;;;;;28.13;17.50;;;15.30;99.90;;;;;;5042134;28;20301;-76
2022/10/24 12:00:21;;;;;;;28.07;18.00;;;15.30;99.90;;;;;;5040965;28;20190;-77
2022/10/24 12:03:20;;;;;;;33.17;19.27;;;15.30;99.90;;;;;;5037791;28;20233;-76
2022/10/24 12:06:07;;;;;;;28.27;17.97;;;15.30;99.90;;;;;;5019771;28;20198;-77
2022/10/24 12:08:56;;;;;;;27.70;17.27;;;15.30;99.90;;;;;;5038485;28;20197;-77
2022/10/24 12:11:35;;;;;;;29.63;18.03;;;15.30;99.90;;;;;;5028494;28;20202;-77
2022/10/24 12:14:27;;;;;;;28.97;18.00;;;15.30;99.90;;;;;;5037786;28;20194;-78
2022/10/24 12:17:14;;;;;;;23.17;16.00;;;15.30;99.90;;;;;;5038771;28;20257;-77
2022/10/24 12:19:43;;;;;;;23.87;15.80;;;15.30;99.90;;;;;;5035232;28;20190;-78
2022/10/24 12:22:16;;;;;;;18.67;13.70;;;15.30;99.90;;;;;;5037255;28;20762;-77
2022/10/24 12:24:44;;;;;;;23.13;14.93;;;14.90;99.90;;;;;;5017028;28;20190;-77
2022/10/24 12:27:28;;;;;;;20.57;13.63;;;15.30;99.90;;;;;;5033758;28;20191;-77
2022/10/24 12:30:04;;;;;;;19.73;13.90;;;15.30;99.90;;;;;;5039913;28;20206;-77
2022/10/24 12:32:39;;;;;;;20.67;13.33;;;15.30;99.90;;;;;;5034768;28;20308;-78
2022/10/24 12:35:39;;;;;;;16.30;12.20;;;15.30;99.90;;;;;;5039947;28;20324;-77
2022/10/24 12:38:17;;;;;;;18.87;13.07;;;15.30;99.90;;;;;;5047966;28;20239;-77
2022/10/24 12:40:54;;;;;;;21.47;14.47;;;15.10;99.90;;;;;;5043143;28;20191;-78
2022/10/24 12:43:34;;;;;;;20.97;13.60;;;15.30;99.90;;;;;;5047025;28;20665;-78
2022/10/24 12:46:23;;;;;;;21.97;14.63;;;15.30;99.90;;;;;;5039407;28;20185;-77